sensor_id;sensor_type;location;lat;lon;timestamp;P1;durP1;ratioP1;P2;durP2;ratioP2
71937;SDS011;59810;48.800;9.086;2022-12-10T00:01:12;35.30;;;16.02;;
71937;SDS011;59810;48.800;9.086;2022-12-10T00:03:43;40.05;;;17.13;;
71937;SDS011;59810;48.800;9.086;2022-12-10T00:06:10;36.50;;;16.65;;
71937;SDS011;59810;48.800;9.086;2022-12-10T00:08:37;39.43;;;17.03;;
71937;SDS011;59810;48.800;9.086;2022-12-10T00:11:04;36.88;;;16.85;;
71937;SDS011;59810;48.800;9.086;2022-12-10T00:13:33;36.28;;;16.13;;
71937;SDS011;59810;48.800;9.086;2022-12-10T00:16:02;31.33;;;14.53;;
71937;SDS011;59810;48.800;9.086;2022-12-10T00:18:29;34.97;;;15.48;;
71937;SDS011;59810;48.800;9.086;2022-12-10T00:20:54;41.37;;;16.03;;
71937;SDS011;59810;48.800;9.086;2022-12-10T00:23:20;34.90;;;15.75;;
71937;SDS011;59810;48.800;9.086;2022-12-10T00:25:45;38.23;;;15.63;;
71937;SDS011;59810;48.800;9.086;2022-12-10T00:28:13;33.58;;;15.32;;
71937;SDS011;59810;48.800;9.086;2022-12-10T00:30:38;36.43;;;15.57;;
71937;SDS011;59810;48.800;9.086;2022-12-10T00:33:04;28.77;;;13.77;;
71937;SDS011;59810;48.800;9.086;2022-12-10T00:35:29;34.50;;;15.43;;
71937;SDS011;59810;48.800;9.086;2022-12-10T00:37:54;34.78;;;15.30;;
71937;SDS011;59810;48.800;9.086;2022-12-10T00:40:20;38.40;;;15.47;;
71937;SDS011;59810;48.800;9.086;2022-12-10T00:42:50;37.88;;;15.23;;
71937;SDS011;59810;48.800;9.086;2022-12-10T00:45:15;34.37;;;14.83;;
71937;SDS011;59810;48.800;9.086;2022-12-10T00:47:41;36.17;;;15.43;;
71937;SDS011;59810;48.800;9.086;2022-12-10T00:50:06;39.37;;;15.47;;
71937;SDS011;59810;48.800;9.086;2022-12-10T00:52:32;33.73;;;14.97;;
71937;SDS011;59810;48.800;9.086;2022-12-10T00:55:00;36.80;;;15.03;;
71937;SDS011;59810;48.800;9.086;2022-12-10T00:57:25;36.85;;;15.00;;
71937;SDS011;59810;48.800;9.086;2022-12-10T00:59:50;36.37;;;16.13;;
71937;SDS011;59810;48.800;9.086;2022-12-10T01:02:16;35.73;;;15.90;;
71937;SDS011;59810;48.800;9.086;2022-12-10T01:04:41;34.73;;;14.90;;
71937;SDS011;59810;48.800;9.086;2022-12-10T01:07:06;40.87;;;15.57;;
71937;SDS011;59810;48.800;9.086;2022-12-10T01:09:32;32.92;;;15.02;;
71937;SDS011;59810;48.800;9.086;2022-12-10T01:11:59;38.13;;;16.03;;
71937;SDS011;59810;48.800;9.086;2022-12-10T01:14:28;37.08;;;14.57;;
71937;SDS011;59810;48.800;9.086;2022-12-10T01:16:58;36.40;;;15.37;;
71937;SDS011;59810;48.800;9.086;2022-12-10T01:19:28;31.48;;;14.02;;
71937;SDS011;59810;48.800;9.086;2022-12-10T01:21:55;32.13;;;14.25;;
71937;SDS011;59810;48.800;9.086;2022-12-10T01:24:22;34.22;;;14.10;;
71937;SDS011;59810;48.800;9.086;2022-12-10T01:26:49;39.10;;;14.50;;
71937;SDS011;59810;48.800;9.086;2022-12-10T01:29:14;34.10;;;15.33;;
71937;SDS011;59810;48.800;9.086;2022-12-10T01:31:40;35.17;;;14.10;;
71937;SDS011;59810;48.800;9.086;2022-12-10T01:34:07;29.75;;;14.23;;
71937;SDS011;59810;48.800;9.086;2022-12-10T01:36:37;32.83;;;15.00;;
71937;SDS011;59810;48.800;9.086;2022-12-10T01:39:05;33.13;;;15.00;;
71937;SDS011;59810;48.800;9.086;2022-12-10T01:41:36;37.55;;;15.68;;
71937;SDS011;59810;48.800;9.086;2022-12-10T01:46:40;36.83;;;14.52;;
71937;SDS011;59810;48.800;9.086;2022-12-10T01:49:14;32.58;;;14.95;;
71937;SDS011;59810;48.800;9.086;2022-12-10T01:51:42;36.50;;;14.70;;
71937;SDS011;59810;48.800;9.086;2022-12-10T01:54:10;32.90;;;14.23;;
71937;SDS011;59810;48.800;9.086;2022-12-10T01:56:38;37.13;;;15.33;;
71937;SDS011;59810;48.800;9.086;2022-12-10T01:59:10;34.67;;;15.95;;
71937;SDS011;59810;48.800;9.086;2022-12-10T02:04:41;36.15;;;14.80;;
71937;SDS011;59810;48.800;9.086;2022-12-10T02:07:14;32.97;;;13.93;;
71937;SDS011;59810;48.800;9.086;2022-12-10T02:09:43;39.50;;;14.63;;
71937;SDS011;59810;48.800;9.086;2022-12-10T02:15:19;33.97;;;14.48;;
71937;SDS011;59810;48.800;9.086;2022-12-10T02:17:54;35.75;;;15.23;;
71937;SDS011;59810;48.800;9.086;2022-12-10T02:20:28;34.75;;;15.40;;
71937;SDS011;59810;48.800;9.086;2022-12-10T02:28:17;32.78;;;14.82;;
71937;SDS011;59810;48.800;9.086;2022-12-10T02:30:43;37.28;;;15.38;;
71937;SDS011;59810;48.800;9.086;2022-12-10T02:33:11;33.17;;;14.85;;
71937;SDS011;59810;48.800;9.086;2022-12-10T02:35:39;36.50;;;14.70;;
71937;SDS011;59810;48.800;9.086;2022-12-10T02:38:14;33.13;;;14.52;;
71937;SDS011;59810;48.800;9.086;2022-12-10T02:40:45;34.80;;;14.07;;
71937;SDS011;59810;48.800;9.086;2022-12-10T02:43:13;34.45;;;14.45;;
71937;SDS011;59810;48.800;9.086;2022-12-10T02:45:39;36.25;;;14.43;;
71937;SDS011;59810;48.800;9.086;2022-12-10T02:48:07;33.80;;;15.33;;
71937;SDS011;59810;48.800;9.086;2022-12-10T02:50:34;32.28;;;13.65;;
71937;SDS011;59810;48.800;9.086;2022-12-10T02:52:59;36.57;;;14.67;;
71937;SDS011;59810;48.800;9.086;2022-12-10T02:55:27;32.20;;;14.15;;
71937;SDS011;59810;48.800;9.086;2022-12-10T03:00:52;36.97;;;14.98;;
71937;SDS011;59810;48.800;9.086;2022-12-10T03:03:32;35.72;;;15.77;;
71937;SDS011;59810;48.800;9.086;2022-12-10T03:06:22;33.43;;;13.90;;
71937;SDS011;59810;48.800;9.086;2022-12-10T03:11:24;32.40;;;13.33;;
71937;SDS011;59810;48.800;9.086;2022-12-10T03:16:43;36.75;;;14.07;;
71937;SDS011;59810;48.800;9.086;2022-12-10T03:19:16;29.30;;;12.43;;
71937;SDS011;59810;48.800;9.086;2022-12-10T03:21:46;32.03;;;14.43;;
71937;SDS011;59810;48.800;9.086;2022-12-10T03:24:16;29.67;;;12.88;;
71937;SDS011;59810;48.800;9.086;2022-12-10T03:26:43;33.75;;;13.45;;
71937;SDS011;59810;48.800;9.086;2022-12-10T03:29:14;33.28;;;13.52;;
71937;SDS011;59810;48.800;9.086;2022-12-10T03:31:43;34.20;;;14.03;;
71937;SDS011;59810;48.800;9.086;2022-12-10T03:34:10;31.95;;;14.40;;
71937;SDS011;59810;48.800;9.086;2022-12-10T03:36:36;33.60;;;14.57;;
71937;SDS011;59810;48.800;9.086;2022-12-10T03:39:03;36.97;;;14.65;;
71937;SDS011;59810;48.800;9.086;2022-12-10T03:41:29;36.15;;;14.85;;
71937;SDS011;59810;48.800;9.086;2022-12-10T03:43:56;33.30;;;14.37;;
71937;SDS011;59810;48.800;9.086;2022-12-10T03:46:28;33.03;;;14.70;;
71937;SDS011;59810;48.800;9.086;2022-12-10T03:48:54;32.17;;;14.10;;
71937;SDS011;59810;48.800;9.086;2022-12-10T03:51:23;31.80;;;13.60;;
71937;SDS011;59810;48.800;9.086;2022-12-10T03:53:48;35.45;;;14.52;;
71937;SDS011;59810;48.800;9.086;2022-12-10T03:56:14;34.13;;;14.15;;
71937;SDS011;59810;48.800;9.086;2022-12-10T03:58:40;33.45;;;13.85;;
71937;SDS011;59810;48.800;9.086;2022-12-10T04:01:06;32.33;;;14.27;;
71937;SDS011;59810;48.800;9.086;2022-12-10T04:03:34;34.07;;;15.93;;
71937;SDS011;59810;48.800;9.086;2022-12-10T04:06:03;36.55;;;15.25;;
71937;SDS011;59810;48.800;9.086;2022-12-10T04:08:29;32.60;;;13.60;;
71937;SDS011;59810;48.800;9.086;2022-12-10T04:10:54;31.80;;;13.83;;
71937;SDS011;59810;48.800;9.086;2022-12-10T04:13:19;34.60;;;13.83;;
71937;SDS011;59810;48.800;9.086;2022-12-10T04:16:03;34.80;;;14.35;;
71937;SDS011;59810;48.800;9.086;2022-12-10T04:18:50;29.17;;;12.70;;
71937;SDS011;59810;48.800;9.086;2022-12-10T04:21:15;35.33;;;14.40;;
71937;SDS011;59810;48.800;9.086;2022-12-10T04:23:59;33.08;;;14.00;;
71937;SDS011;59810;48.800;9.086;2022-12-10T04:26:43;32.75;;;13.23;;
71937;SDS011;59810;48.800;9.086;2022-12-10T04:29:21;36.55;;;14.43;;
71937;SDS011;59810;48.800;9.086;2022-12-10T04:31:48;35.17;;;13.97;;
71937;SDS011;59810;48.800;9.086;2022-12-10T04:34:13;29.85;;;13.00;;
71937;SDS011;59810;48.800;9.086;2022-12-10T04:36:38;34.67;;;14.17;;
71937;SDS011;59810;48.800;9.086;2022-12-10T04:39:04;41.87;;;15.57;;
71937;SDS011;59810;48.800;9.086;2022-12-10T04:41:29;34.37;;;14.17;;
71937;SDS011;59810;48.800;9.086;2022-12-10T04:43:55;32.17;;;14.23;;
71937;SDS011;59810;48.800;9.086;2022-12-10T04:46:20;30.67;;;14.10;;
71937;SDS011;59810;48.800;9.086;2022-12-10T04:48:45;35.10;;;13.97;;
71937;SDS011;59810;48.800;9.086;2022-12-10T04:51:11;32.07;;;13.33;;
71937;SDS011;59810;48.800;9.086;2022-12-10T04:53:36;37.10;;;15.07;;
71937;SDS011;59810;48.800;9.086;2022-12-10T04:56:01;35.30;;;14.17;;
71937;SDS011;59810;48.800;9.086;2022-12-10T04:58:30;34.17;;;14.48;;
71937;SDS011;59810;48.800;9.086;2022-12-10T05:01:04;32.83;;;14.25;;
71937;SDS011;59810;48.800;9.086;2022-12-10T05:03:34;32.13;;;14.68;;
71937;SDS011;59810;48.800;9.086;2022-12-10T05:06:04;35.83;;;14.37;;
71937;SDS011;59810;48.800;9.086;2022-12-10T05:08:31;32.03;;;13.00;;
71937;SDS011;59810;48.800;9.086;2022-12-10T05:11:01;37.00;;;14.70;;
71937;SDS011;59810;48.800;9.086;2022-12-10T05:13:28;37.45;;;14.57;;
71937;SDS011;59810;48.800;9.086;2022-12-10T05:15:53;33.87;;;15.33;;
71937;SDS011;59810;48.800;9.086;2022-12-10T05:18:18;31.17;;;13.80;;
71937;SDS011;59810;48.800;9.086;2022-12-10T05:20:46;31.77;;;13.68;;
71937;SDS011;59810;48.800;9.086;2022-12-10T05:23:11;36.20;;;15.23;;
71937;SDS011;59810;48.800;9.086;2022-12-10T05:26:02;34.63;;;15.50;;
71937;SDS011;59810;48.800;9.086;2022-12-10T05:28:33;33.72;;;15.13;;
71937;SDS011;59810;48.800;9.086;2022-12-10T05:31:00;34.43;;;14.53;;
71937;SDS011;59810;48.800;9.086;2022-12-10T05:33:29;34.78;;;15.07;;
71937;SDS011;59810;48.800;9.086;2022-12-10T05:38:27;32.20;;;13.93;;
71937;SDS011;59810;48.800;9.086;2022-12-10T05:40:53;33.63;;;14.15;;
71937;SDS011;59810;48.800;9.086;2022-12-10T05:43:19;34.63;;;14.53;;
71937;SDS011;59810;48.800;9.086;2022-12-10T05:45:45;36.57;;;14.93;;
71937;SDS011;59810;48.800;9.086;2022-12-10T05:48:11;35.08;;;14.52;;
71937;SDS011;59810;48.800;9.086;2022-12-10T05:50:39;34.42;;;14.65;;
71937;SDS011;59810;48.800;9.086;2022-12-10T05:53:04;36.63;;;14.53;;
71937;SDS011;59810;48.800;9.086;2022-12-10T05:55:30;37.27;;;14.07;;
71937;SDS011;59810;48.800;9.086;2022-12-10T05:57:56;37.25;;;15.32;;
71937;SDS011;59810;48.800;9.086;2022-12-10T06:00:22;36.45;;;14.45;;
71937;SDS011;59810;48.800;9.086;2022-12-10T06:02:48;36.75;;;15.07;;
71937;SDS011;59810;48.800;9.086;2022-12-10T06:05:17;38.17;;;14.83;;
71937;SDS011;59810;48.800;9.086;2022-12-10T06:07:43;38.40;;;15.57;;
71937;SDS011;59810;48.800;9.086;2022-12-10T06:10:11;32.67;;;13.32;;
71937;SDS011;59810;48.800;9.086;2022-12-10T06:12:39;36.15;;;14.70;;
71937;SDS011;59810;48.800;9.086;2022-12-10T06:15:04;36.20;;;14.33;;
71937;SDS011;59810;48.800;9.086;2022-12-10T06:17:30;35.22;;;14.40;;
71937;SDS011;59810;48.800;9.086;2022-12-10T06:20:01;46.83;;;17.65;;
71937;SDS011;59810;48.800;9.086;2022-12-10T06:22:27;40.37;;;17.13;;
71937;SDS011;59810;48.800;9.086;2022-12-10T06:24:52;40.47;;;16.13;;
71937;SDS011;59810;48.800;9.086;2022-12-10T06:27:20;37.45;;;15.18;;
71937;SDS011;59810;48.800;9.086;2022-12-10T06:29:45;36.43;;;14.73;;
71937;SDS011;59810;48.800;9.086;2022-12-10T06:32:10;30.83;;;13.63;;
71937;SDS011;59810;48.800;9.086;2022-12-10T06:34:36;35.77;;;15.00;;
71937;SDS011;59810;48.800;9.086;2022-12-10T06:37:03;30.10;;;13.80;;
71937;SDS011;59810;48.800;9.086;2022-12-10T06:39:29;37.03;;;14.70;;
71937;SDS011;59810;48.800;9.086;2022-12-10T06:41:56;30.75;;;13.10;;
71937;SDS011;59810;48.800;9.086;2022-12-10T06:44:22;38.40;;;15.17;;
71937;SDS011;59810;48.800;9.086;2022-12-10T06:46:47;33.47;;;13.87;;
71937;SDS011;59810;48.800;9.086;2022-12-10T06:49:14;34.88;;;13.70;;
71937;SDS011;59810;48.800;9.086;2022-12-10T06:51:40;33.77;;;14.50;;
71937;SDS011;59810;48.800;9.086;2022-12-10T06:54:05;35.90;;;14.23;;
71937;SDS011;59810;48.800;9.086;2022-12-10T06:56:30;33.50;;;13.80;;
71937;SDS011;59810;48.800;9.086;2022-12-10T06:58:56;36.10;;;14.43;;
71937;SDS011;59810;48.800;9.086;2022-12-10T07:01:22;32.17;;;13.43;;
71937;SDS011;59810;48.800;9.086;2022-12-10T07:03:51;33.38;;;13.63;;
71937;SDS011;59810;48.800;9.086;2022-12-10T07:06:21;31.70;;;13.13;;
71937;SDS011;59810;48.800;9.086;2022-12-10T07:08:50;33.58;;;13.70;;
71937;SDS011;59810;48.800;9.086;2022-12-10T07:11:17;36.97;;;15.57;;
71937;SDS011;59810;48.800;9.086;2022-12-10T07:13:45;36.58;;;15.05;;
71937;SDS011;59810;48.800;9.086;2022-12-10T07:16:22;33.67;;;15.10;;
71937;SDS011;59810;48.800;9.086;2022-12-10T07:18:50;43.28;;;18.58;;
71937;SDS011;59810;48.800;9.086;2022-12-10T07:23:53;32.40;;;14.05;;
71937;SDS011;59810;48.800;9.086;2022-12-10T07:26:22;29.55;;;13.05;;
71937;SDS011;59810;48.800;9.086;2022-12-10T07:28:49;33.53;;;13.50;;
71937;SDS011;59810;48.800;9.086;2022-12-10T07:31:14;35.03;;;14.50;;
71937;SDS011;59810;48.800;9.086;2022-12-10T07:33:42;34.27;;;14.33;;
71937;SDS011;59810;48.800;9.086;2022-12-10T07:36:11;35.05;;;14.43;;
71937;SDS011;59810;48.800;9.086;2022-12-10T07:38:37;34.83;;;14.73;;
71937;SDS011;59810;48.800;9.086;2022-12-10T07:41:06;36.60;;;14.17;;
71937;SDS011;59810;48.800;9.086;2022-12-10T07:43:35;33.15;;;14.07;;
71937;SDS011;59810;48.800;9.086;2022-12-10T07:46:05;31.52;;;14.32;;
71937;SDS011;59810;48.800;9.086;2022-12-10T07:48:33;36.15;;;14.00;;
71937;SDS011;59810;48.800;9.086;2022-12-10T07:51:02;34.70;;;14.93;;
71937;SDS011;59810;48.800;9.086;2022-12-10T07:53:28;36.23;;;13.57;;
71937;SDS011;59810;48.800;9.086;2022-12-10T07:55:56;33.30;;;14.23;;
71937;SDS011;59810;48.800;9.086;2022-12-10T07:58:23;31.80;;;14.00;;
71937;SDS011;59810;48.800;9.086;2022-12-10T08:00:51;31.70;;;14.15;;
71937;SDS011;59810;48.800;9.086;2022-12-10T08:03:18;30.87;;;13.20;;
71937;SDS011;59810;48.800;9.086;2022-12-10T08:05:44;33.60;;;14.98;;
71937;SDS011;59810;48.800;9.086;2022-12-10T08:08:09;35.60;;;14.13;;
71937;SDS011;59810;48.800;9.086;2022-12-10T08:10:35;35.80;;;13.23;;
71937;SDS011;59810;48.800;9.086;2022-12-10T08:13:01;35.17;;;14.10;;
71937;SDS011;59810;48.800;9.086;2022-12-10T08:15:27;37.73;;;15.77;;
71937;SDS011;59810;48.800;9.086;2022-12-10T08:17:53;35.97;;;14.32;;
71937;SDS011;59810;48.800;9.086;2022-12-10T08:20:19;36.67;;;14.50;;
71937;SDS011;59810;48.800;9.086;2022-12-10T08:22:45;32.53;;;13.50;;
71937;SDS011;59810;48.800;9.086;2022-12-10T08:25:10;33.83;;;13.50;;
71937;SDS011;59810;48.800;9.086;2022-12-10T08:27:36;35.43;;;14.00;;
71937;SDS011;59810;48.800;9.086;2022-12-10T08:30:01;30.13;;;13.80;;
71937;SDS011;59810;48.800;9.086;2022-12-10T08:32:26;37.47;;;14.90;;
71937;SDS011;59810;48.800;9.086;2022-12-10T08:34:52;32.83;;;14.10;;
71937;SDS011;59810;48.800;9.086;2022-12-10T08:37:17;36.03;;;14.45;;
71937;SDS011;59810;48.800;9.086;2022-12-10T08:39:45;31.43;;;13.27;;
71937;SDS011;59810;48.800;9.086;2022-12-10T08:42:10;38.07;;;14.87;;
71937;SDS011;59810;48.800;9.086;2022-12-10T08:44:35;32.47;;;13.10;;
71937;SDS011;59810;48.800;9.086;2022-12-10T08:47:01;35.20;;;14.60;;
71937;SDS011;59810;48.800;9.086;2022-12-10T08:49:26;36.33;;;14.50;;
71937;SDS011;59810;48.800;9.086;2022-12-10T08:51:51;31.90;;;14.10;;
71937;SDS011;59810;48.800;9.086;2022-12-10T08:54:16;33.63;;;15.03;;
71937;SDS011;59810;48.800;9.086;2022-12-10T08:56:44;31.25;;;14.20;;
71937;SDS011;59810;48.800;9.086;2022-12-10T08:59:10;32.93;;;13.93;;
71937;SDS011;59810;48.800;9.086;2022-12-10T09:01:35;35.03;;;15.17;;
71937;SDS011;59810;48.800;9.086;2022-12-10T09:04:03;34.10;;;15.25;;
71937;SDS011;59810;48.800;9.086;2022-12-10T09:06:28;34.97;;;14.17;;
71937;SDS011;59810;48.800;9.086;2022-12-10T09:08:53;47.33;;;22.73;;
71937;SDS011;59810;48.800;9.086;2022-12-10T09:11:24;42.95;;;17.70;;
71937;SDS011;59810;48.800;9.086;2022-12-10T09:13:54;46.33;;;19.70;;
71937;SDS011;59810;48.800;9.086;2022-12-10T09:16:21;49.15;;;20.23;;
71937;SDS011;59810;48.800;9.086;2022-12-10T09:18:55;39.57;;;15.80;;
71937;SDS011;59810;48.800;9.086;2022-12-10T09:21:21;36.50;;;16.30;;
71937;SDS011;59810;48.800;9.086;2022-12-10T09:23:46;32.40;;;14.57;;
71937;SDS011;59810;48.800;9.086;2022-12-10T09:26:13;34.33;;;14.03;;
71937;SDS011;59810;48.800;9.086;2022-12-10T09:28:43;38.85;;;15.13;;
71937;SDS011;59810;48.800;9.086;2022-12-10T09:31:10;28.58;;;12.93;;
71937;SDS011;59810;48.800;9.086;2022-12-10T09:33:36;35.70;;;14.00;;
71937;SDS011;59810;48.800;9.086;2022-12-10T09:36:05;32.58;;;13.60;;
71937;SDS011;59810;48.800;9.086;2022-12-10T09:38:35;33.13;;;14.07;;
71937;SDS011;59810;48.800;9.086;2022-12-10T09:43:53;41.17;;;20.05;;
71937;SDS011;59810;48.800;9.086;2022-12-10T09:51:45;40.33;;;16.03;;
71937;SDS011;59810;48.800;9.086;2022-12-10T09:54:31;38.90;;;15.23;;
71937;SDS011;59810;48.800;9.086;2022-12-10T09:57:28;36.87;;;13.10;;
71937;SDS011;59810;48.800;9.086;2022-12-10T09:59:59;37.65;;;16.15;;
71937;SDS011;59810;48.800;9.086;2022-12-10T10:02:28;64.95;;;21.85;;
71937;SDS011;59810;48.800;9.086;2022-12-10T10:07:42;40.50;;;17.27;;
71937;SDS011;59810;48.800;9.086;2022-12-10T10:12:52;31.58;;;12.25;;
71937;SDS011;59810;48.800;9.086;2022-12-10T10:15:22;32.92;;;13.15;;
71937;SDS011;59810;48.800;9.086;2022-12-10T10:17:53;31.65;;;13.18;;
71937;SDS011;59810;48.800;9.086;2022-12-10T10:20:21;31.65;;;14.02;;
71937;SDS011;59810;48.800;9.086;2022-12-10T10:22:46;33.00;;;14.17;;
71937;SDS011;59810;48.800;9.086;2022-12-10T10:25:13;29.33;;;12.82;;
71937;SDS011;59810;48.800;9.086;2022-12-10T10:27:40;31.77;;;12.03;;
71937;SDS011;59810;48.800;9.086;2022-12-10T10:30:06;31.60;;;12.88;;
71937;SDS011;59810;48.800;9.086;2022-12-10T10:35:04;29.73;;;12.20;;
71937;SDS011;59810;48.800;9.086;2022-12-10T10:37:40;28.40;;;12.68;;
71937;SDS011;59810;48.800;9.086;2022-12-10T10:40:24;31.60;;;13.88;;
71937;SDS011;59810;48.800;9.086;2022-12-10T10:42:54;29.35;;;12.63;;
71937;SDS011;59810;48.800;9.086;2022-12-10T10:45:32;26.02;;;11.35;;
71937;SDS011;59810;48.800;9.086;2022-12-10T10:48:13;26.10;;;11.83;;
71937;SDS011;59810;48.800;9.086;2022-12-10T10:50:43;30.90;;;12.05;;
71937;SDS011;59810;48.800;9.086;2022-12-10T10:53:30;29.35;;;12.25;;
71937;SDS011;59810;48.800;9.086;2022-12-10T10:56:06;26.30;;;11.45;;
71937;SDS011;59810;48.800;9.086;2022-12-10T10:58:35;27.30;;;11.65;;
71937;SDS011;59810;48.800;9.086;2022-12-10T11:01:04;28.43;;;11.70;;
71937;SDS011;59810;48.800;9.086;2022-12-10T11:03:35;31.77;;;13.13;;
71937;SDS011;59810;48.800;9.086;2022-12-10T11:06:04;30.00;;;12.65;;
71937;SDS011;59810;48.800;9.086;2022-12-10T11:08:31;28.08;;;10.57;;
71937;SDS011;59810;48.800;9.086;2022-12-10T11:10:58;24.48;;;11.40;;
71937;SDS011;59810;48.800;9.086;2022-12-10T11:13:29;23.70;;;10.63;;
71937;SDS011;59810;48.800;9.086;2022-12-10T11:18:42;33.40;;;15.55;;
71937;SDS011;59810;48.800;9.086;2022-12-10T11:21:22;29.88;;;13.10;;
71937;SDS011;59810;48.800;9.086;2022-12-10T11:23:49;44.73;;;18.90;;
71937;SDS011;59810;48.800;9.086;2022-12-10T11:26:24;38.42;;;18.00;;
71937;SDS011;59810;48.800;9.086;2022-12-10T11:31:33;30.30;;;12.30;;
71937;SDS011;59810;48.800;9.086;2022-12-10T11:45:28;25.65;;;11.80;;
71937;SDS011;59810;48.800;9.086;2022-12-10T11:56:04;29.27;;;12.27;;
71937;SDS011;59810;48.800;9.086;2022-12-10T12:04:25;26.07;;;11.70;;
71937;SDS011;59810;48.800;9.086;2022-12-10T12:14:52;22.38;;;10.88;;
71937;SDS011;59810;48.800;9.086;2022-12-10T12:17:23;25.02;;;11.82;;
71937;SDS011;59810;48.800;9.086;2022-12-10T12:20:02;34.67;;;11.90;;
71937;SDS011;59810;48.800;9.086;2022-12-10T12:22:38;30.20;;;12.55;;
71937;SDS011;59810;48.800;9.086;2022-12-10T12:25:28;28.90;;;12.38;;
71937;SDS011;59810;48.800;9.086;2022-12-10T12:28:11;27.65;;;11.57;;
71937;SDS011;59810;48.800;9.086;2022-12-10T12:30:39;25.25;;;10.80;;
71937;SDS011;59810;48.800;9.086;2022-12-10T12:33:13;28.53;;;10.93;;
71937;SDS011;59810;48.800;9.086;2022-12-10T12:36:06;26.30;;;11.30;;
71937;SDS011;59810;48.800;9.086;2022-12-10T12:44:19;28.17;;;11.55;;
71937;SDS011;59810;48.800;9.086;2022-12-10T12:46:55;25.73;;;11.80;;
71937;SDS011;59810;48.800;9.086;2022-12-10T12:49:31;29.45;;;12.52;;
71937;SDS011;59810;48.800;9.086;2022-12-10T12:52:00;32.55;;;13.02;;
71937;SDS011;59810;48.800;9.086;2022-12-10T12:54:31;28.83;;;11.90;;
71937;SDS011;59810;48.800;9.086;2022-12-10T13:05:08;28.45;;;12.35;;
71937;SDS011;59810;48.800;9.086;2022-12-10T13:07:43;27.05;;;12.35;;
71937;SDS011;59810;48.800;9.086;2022-12-10T13:10:16;26.10;;;11.60;;
71937;SDS011;59810;48.800;9.086;2022-12-10T13:12:47;27.08;;;12.48;;
71937;SDS011;59810;48.800;9.086;2022-12-10T13:23:47;28.65;;;11.38;;
71937;SDS011;59810;48.800;9.086;2022-12-10T13:26:23;30.15;;;10.88;;
71937;SDS011;59810;48.800;9.086;2022-12-10T13:28:54;34.72;;;13.23;;
71937;SDS011;59810;48.800;9.086;2022-12-10T13:31:36;27.70;;;10.97;;
71937;SDS011;59810;48.800;9.086;2022-12-10T13:45:00;25.98;;;10.55;;
71937;SDS011;59810;48.800;9.086;2022-12-10T13:49:59;28.70;;;11.80;;
71937;SDS011;59810;48.800;9.086;2022-12-10T13:55:13;28.45;;;11.75;;
71937;SDS011;59810;48.800;9.086;2022-12-10T14:06:23;26.40;;;10.57;;
71937;SDS011;59810;48.800;9.086;2022-12-10T14:11:32;25.52;;;10.57;;
71937;SDS011;59810;48.800;9.086;2022-12-10T14:14:02;23.40;;;9.90;;
71937;SDS011;59810;48.800;9.086;2022-12-10T14:16:35;28.00;;;10.50;;
71937;SDS011;59810;48.800;9.086;2022-12-10T14:19:08;28.42;;;10.02;;
71937;SDS011;59810;48.800;9.086;2022-12-10T14:21:41;29.85;;;12.30;;
71937;SDS011;59810;48.800;9.086;2022-12-10T14:24:28;27.15;;;10.65;;
71937;SDS011;59810;48.800;9.086;2022-12-10T14:26:57;26.33;;;9.95;;
71937;SDS011;59810;48.800;9.086;2022-12-10T14:29:43;26.13;;;10.60;;
71937;SDS011;59810;48.800;9.086;2022-12-10T14:32:16;25.25;;;9.93;;
71937;SDS011;59810;48.800;9.086;2022-12-10T14:34:50;26.58;;;11.10;;
71937;SDS011;59810;48.800;9.086;2022-12-10T14:37:22;30.63;;;13.18;;
71937;SDS011;59810;48.800;9.086;2022-12-10T14:39:50;29.52;;;11.95;;
71937;SDS011;59810;48.800;9.086;2022-12-10T14:42:19;27.10;;;12.13;;
71937;SDS011;59810;48.800;9.086;2022-12-10T14:44:45;25.52;;;11.50;;
71937;SDS011;59810;48.800;9.086;2022-12-10T14:47:16;30.65;;;11.48;;
71937;SDS011;59810;48.800;9.086;2022-12-10T14:49:49;30.60;;;11.43;;
71937;SDS011;59810;48.800;9.086;2022-12-10T14:52:17;28.70;;;10.70;;
71937;SDS011;59810;48.800;9.086;2022-12-10T14:54:44;27.55;;;11.52;;
71937;SDS011;59810;48.800;9.086;2022-12-10T14:57:15;29.73;;;11.82;;
71937;SDS011;59810;48.800;9.086;2022-12-10T14:59:51;27.23;;;11.18;;
71937;SDS011;59810;48.800;9.086;2022-12-10T15:02:29;27.02;;;10.88;;
71937;SDS011;59810;48.800;9.086;2022-12-10T15:04:58;26.40;;;10.13;;
71937;SDS011;59810;48.800;9.086;2022-12-10T15:07:30;31.35;;;10.85;;
71937;SDS011;59810;48.800;9.086;2022-12-10T15:09:59;26.45;;;10.68;;
71937;SDS011;59810;48.800;9.086;2022-12-10T15:12:31;29.23;;;11.57;;
71937;SDS011;59810;48.800;9.086;2022-12-10T15:15:03;33.90;;;12.05;;
71937;SDS011;59810;48.800;9.086;2022-12-10T15:17:37;28.63;;;10.67;;
71937;SDS011;59810;48.800;9.086;2022-12-10T15:22:50;27.27;;;10.35;;
71937;SDS011;59810;48.800;9.086;2022-12-10T15:28:25;28.10;;;11.00;;
71937;SDS011;59810;48.800;9.086;2022-12-10T15:30:51;29.80;;;10.93;;
71937;SDS011;59810;48.800;9.086;2022-12-10T15:33:23;28.98;;;10.52;;
71937;SDS011;59810;48.800;9.086;2022-12-10T15:35:56;28.92;;;12.52;;
71937;SDS011;59810;48.800;9.086;2022-12-10T15:38:23;30.33;;;12.10;;
71937;SDS011;59810;48.800;9.086;2022-12-10T15:40:49;26.77;;;11.37;;
71937;SDS011;59810;48.800;9.086;2022-12-10T15:45:51;30.87;;;10.97;;
71937;SDS011;59810;48.800;9.086;2022-12-10T15:48:16;40.30;;;14.82;;
71937;SDS011;59810;48.800;9.086;2022-12-10T15:50:43;42.83;;;16.83;;
71937;SDS011;59810;48.800;9.086;2022-12-10T15:53:11;28.55;;;10.55;;
71937;SDS011;59810;48.800;9.086;2022-12-10T15:55:39;33.63;;;14.68;;
71937;SDS011;59810;48.800;9.086;2022-12-10T15:58:09;25.93;;;10.53;;
71937;SDS011;59810;48.800;9.086;2022-12-10T16:00:36;24.85;;;10.32;;
71937;SDS011;59810;48.800;9.086;2022-12-10T16:03:03;27.38;;;10.68;;
71937;SDS011;59810;48.800;9.086;2022-12-10T16:05:36;33.07;;;13.60;;
71937;SDS011;59810;48.800;9.086;2022-12-10T16:10:46;38.80;;;14.98;;
71937;SDS011;59810;48.800;9.086;2022-12-10T16:13:19;39.05;;;12.57;;
71937;SDS011;59810;48.800;9.086;2022-12-10T16:15:53;33.47;;;13.05;;
71937;SDS011;59810;48.800;9.086;2022-12-10T16:18:22;23.73;;;10.13;;
71937;SDS011;59810;48.800;9.086;2022-12-10T16:20:48;26.48;;;11.77;;
71937;SDS011;59810;48.800;9.086;2022-12-10T16:23:13;25.47;;;10.73;;
71937;SDS011;59810;48.800;9.086;2022-12-10T16:25:41;28.40;;;11.75;;
71937;SDS011;59810;48.800;9.086;2022-12-10T16:28:12;57.60;;;17.65;;
71937;SDS011;59810;48.800;9.086;2022-12-10T16:30:46;33.03;;;12.75;;
71937;SDS011;59810;48.800;9.086;2022-12-10T16:33:14;24.87;;;11.10;;
71937;SDS011;59810;48.800;9.086;2022-12-10T16:35:41;28.92;;;10.85;;
71937;SDS011;59810;48.800;9.086;2022-12-10T16:38:07;24.98;;;10.00;;
71937;SDS011;59810;48.800;9.086;2022-12-10T16:40:34;24.23;;;9.60;;
71937;SDS011;59810;48.800;9.086;2022-12-10T16:43:02;36.42;;;11.85;;
71937;SDS011;59810;48.800;9.086;2022-12-10T16:45:33;28.53;;;10.50;;
71937;SDS011;59810;48.800;9.086;2022-12-10T16:48:00;28.48;;;10.68;;
71937;SDS011;59810;48.800;9.086;2022-12-10T16:50:27;28.55;;;10.30;;
71937;SDS011;59810;48.800;9.086;2022-12-10T16:52:52;21.97;;;9.53;;
71937;SDS011;59810;48.800;9.086;2022-12-10T16:55:20;31.23;;;12.80;;